Montgomery, NY

5:32 AM EDT en Septiembre 17, 2014 (GMT -0400)
Engineering & Surveying Properties | Change Station
CLOSE
Current Station
Estación meteorológica personal
Location: Montgomery, NY
Altura: 387 ft
Estaciones meteorológicas cercanas

Alt 387 ft 41.53 °N, 74.24 °W | Updated 12 minutes ago

Partly Cloudy
Parcialmente nublado
46.2 ° F
Sensación térmica 46 ° F
N
0.0
Viento Variable Viento desde ENE

Hoy
Alta -- | Baja -- ° F
--% Posibilidad de precipitaciones
Ayer
Alta -- | Baja -- ° F
Precip. -- pul
6:39 AM 7:02 PM
Cuarto menguante, 37% visible
Presión 30.05 pul
Visibilidad 6.0 Millas
Nubes Baja 200 ft
Vientos helados 46 ° F
Punto de rocío 45 ° F
Humedad 96%
Precipitaciones 0.00 pul
Espesor de la nieve No disponible.
UV 0 de una escala de 12
Polen 3.80 de una escala de 12
PM2.5 Buena
Flu Activity No disponible.
SPECI KMGJ 170927Z AUTO 00000KT 6SM BR FEW002 05/05 A3005 RMK AO2 T00500050 TSNO $

More Conditions Fewer Conditions

Presión 30.05 pul
Visibilidad 6.0 Millas
Nubes Baja 200 ft
Vientos helados 46 ° F
Punto de rocío 45 ° F
Humedad 96%
Precipitaciones 0.00 pul
Espesor de la nieve No disponible.
UV 0 de una escala de 12
Polen 3.80 de una escala de 12
PM2.5 Buena
Flu Activity No disponible.
SPECI KMGJ 170927Z AUTO 00000KT 6SM BR FEW002 05/05 A3005 RMK AO2 T00500050 TSNO $

More Conditions Fewer Conditions

10-Day Weather Forecast

Almanac

Astronomía

Sep. 17, 2014 Salida Puesta
Hora real 6:39 AM EDT 7:02 PM EDT
Crepúsculo civil 6:11 AM EDT 7:30 PM EDT
Crepúsculo náutico 5:38 AM EDT 8:03 PM EDT
Crepúsculo astronómico 5:05 AM EDT 8:36 PM EDT
Luna 12:33 AM EDT 3:13 PM EDT
Horas de luz 13h 19m
Horas de luz
12h 23m
Tomorrow will be 2m 45s shorter.
Cuarto menguante, 37% of the Moon is Illuminated
Hoy
Cuarto menguante
Sep 24
Nueva
Oct 1
Cuarto creciente
Oct 8
Luna llena
Oct 15
Cuarto menguante

Extremos de hoy

Máximos del estado Bajos del estado

Community

WunderPhotos

Upload Photos

1,753,991 ¡fotos cargadas!

Nearby

Calidad del aire

  Calidad del aire Índice AQ Contaminante
Ayer Buena
OZONE
Ayer Buena
PM2.5
Real Buena
PM2.5
Miércoles Buena
OZONE
Miércoles Buena
PM2.5

Grosos de nieve

Estación Profundido Altura
No tenemos constancia de nieve nueva.

Actividad de terremotos

Ciudad Distance Mag. Tiempo y dato
No hay informes recientes de la actividad sísmica.
Magnitud mínima muestra es 2,5.

Temperaturas de aguas costeras

Lugar Temperatura
Sin partes meteorológicos de las estaciones

Estaciones meteorológicas cercanas